Time;durP1;ratioP1;P1;durP2;ratioP2;P2;SDS_P1;SDS_P2;PMS_P1;PMS_P2;Temp;Humidity;BMP_temperature;BMP_pressure;BME280_temperature;BME280_humidity;BME280_pressure;Samples;Min_cycle;Max_cycle;Signal;HPM_P1;HPM_P2
2023/01/07 00:02:10;;;;;;;14.23;7.90;;;;;;;-141.97;58.03;47738.19;5015484;28;20557;-85
2023/01/07 00:04:35;;;;;;;14.10;6.83;;;;;;;-141.97;57.82;47740.13;5003231;28;20278;-85
2023/01/07 00:07:01;;;;;;;14.67;7.20;;;;;;;-141.97;58.24;47765.09;5005831;28;20174;-85
2023/01/07 00:09:26;;;;;;;11.23;7.50;;;;;;;-141.97;57.77;47599.81;5007561;28;20179;-85
2023/01/07 00:11:51;;;;;;;73.40;27.27;;;;;;;-141.97;57.60;47669.00;5009089;28;20206;-85
2023/01/07 00:14:17;;;;;;;79.67;32.93;;;;;;;-141.97;57.54;47686.31;5009504;28;20626;-85
2023/01/07 00:16:43;;;;;;;107.83;40.83;;;;;;;-141.97;57.59;47697.84;5008833;28;20171;-84
2023/01/07 00:19:12;;;;;;;62.87;28.53;;;;;;;-141.97;58.04;47622.88;5003411;28;20191;-84
2023/01/07 00:21:37;;;;;;;42.23;19.40;;;;;;;-141.97;58.30;47678.63;5004786;28;20181;-84
2023/01/07 00:24:05;;;;;;;33.67;16.37;;;;;;;-141.97;58.46;47726.66;5002083;28;20415;-84
2023/01/07 00:26:33;;;;;;;31.13;15.90;;;;;;;-141.97;57.96;47630.56;4997349;28;20176;-84
2023/01/07 00:28:59;;;;;;;25.87;13.63;;;;;;;-141.97;58.23;47699.75;4995021;28;20456;-84
2023/01/07 00:31:33;;;;;;;29.47;15.53;;;;;;;-141.97;57.93;47715.13;4993914;28;20422;-84
2023/01/07 00:36:28;;;;;;;19.60;9.97;;;;;;;-141.97;58.91;47655.53;4995230;28;20801;-86
2023/01/07 00:39:14;;;;;;;21.70;10.33;;;;;;;-141.97;59.11;47761.25;4994961;28;20254;-84
2023/01/07 00:41:40;;;;;;;20.70;9.57;;;;;;;-141.97;59.24;47726.66;4994152;28;20534;-84
2023/01/07 00:44:06;;;;;;;17.03;9.33;;;;;;;-141.97;59.33;47574.81;4993479;28;20438;-84
2023/01/07 00:46:32;;;;;;;21.03;10.07;;;;;;;-141.97;59.19;47665.16;4994849;28;20566;-85
2023/01/07 00:48:58;;;;;;;20.60;10.07;;;;;;;-141.97;59.26;47684.38;4995085;28;20446;-85
2023/01/07 00:51:24;;;;;;;17.97;9.20;;;;;;;-141.97;59.56;47770.88;4993465;28;20218;-84
2023/01/07 00:53:49;;;;;;;17.30;9.37;;;;;;;-141.97;60.21;47730.50;4992980;28;20227;-85
2023/01/07 00:56:17;;;;;;;18.50;10.57;;;;;;;-141.97;60.76;47697.84;5000704;28;20975;-84
2023/01/07 00:58:43;;;;;;;19.70;9.90;;;;;;;-141.97;60.36;47717.06;5029345;28;20195;-84
2023/01/07 01:01:10;;;;;;;19.87;10.40;;;;;;;-141.97;60.17;47745.88;5023954;28;20417;-85
2023/01/07 01:03:36;;;;;;;17.17;9.50;;;;;;;-141.97;59.34;47649.78;5017439;28;20998;-85
2023/01/07 01:06:13;;;;;;;15.77;9.13;;;;;;;-141.97;59.02;47726.66;5014385;28;20493;-85
2023/01/07 01:08:43;;;;;;;19.93;11.27;;;;;;;-141.97;59.10;47807.41;5012890;28;20413;-85
2023/01/07 01:11:10;;;;;;;20.13;11.03;;;;;;;-141.97;59.38;47699.75;5012798;28;20915;-84
2023/01/07 01:13:37;;;;;;;38.00;17.23;;;;;;;-141.97;58.94;47688.22;5012702;28;20418;-87
2023/01/07 01:16:08;;;;;;;40.37;17.07;;;;;;;-141.97;59.44;47655.53;5012569;28;20795;-84
2023/01/07 01:18:34;;;;;;;26.60;13.30;;;;;;;-141.97;59.70;47697.84;5012433;28;20445;-85
2023/01/07 01:21:09;;;;;;;25.60;13.17;;;;;;;-141.97;60.01;47692.06;5013846;28;20448;-85
2023/01/07 01:23:35;;;;;;;22.17;11.60;;;;;;;-141.97;60.02;47751.66;5013856;28;20192;-85
2023/01/07 01:26:03;;;;;;;18.40;10.30;;;;;;;-141.97;59.48;47724.75;5012810;28;20533;-85
2023/01/07 01:28:29;;;;;;;17.47;9.07;;;;;;;-141.97;59.50;47690.16;5013422;28;20685;-85
2023/01/07 01:30:54;;;;;;;16.77;9.13;;;;;;;-141.97;59.72;47718.97;5029032;28;20414;-85
2023/01/07 01:33:20;;;;;;;17.30;8.80;;;;;;;-141.97;59.52;47672.84;5013934;28;20158;-85
2023/01/07 01:35:45;;;;;;;16.40;8.90;;;;;;;-141.97;59.28;47755.50;5013252;28;20302;-85
2023/01/07 01:38:10;;;;;;;16.57;9.20;;;;;;;-141.97;59.86;47651.69;5011965;28;20194;-85
2023/01/07 01:40:36;;;;;;;20.30;10.30;;;;;;;-141.97;60.02;47651.69;5012101;28;20214;-85
2023/01/07 01:43:01;;;;;;;21.97;11.27;;;;;;;-141.97;59.70;47724.75;5013201;28;20163;-85
2023/01/07 01:45:28;;;;;;;20.23;10.53;;;;;;;-141.97;60.32;47649.78;5013385;28;20237;-85
2023/01/07 01:47:58;;;;;;;19.93;9.53;;;;;;;-141.97;60.47;47726.66;5013201;28;20170;-85
2023/01/07 01:50:31;;;;;;;19.23;10.03;;;;;;;-141.97;60.69;47692.06;5013059;28;20405;-85
2023/01/07 01:52:56;;;;;;;21.17;9.33;;;;;;;-141.97;61.35;47720.91;5011708;28;20469;-85
2023/01/07 01:55:28;;;;;;;15.57;7.73;;;;;;;-141.97;61.04;47615.19;5013211;28;20497;-85
2023/01/07 01:57:58;;;;;;;19.63;9.63;;;;;;;-141.97;60.87;47680.53;5011950;28;20216;-86
2023/01/07 02:00:23;;;;;;;16.57;8.40;;;;;;;-141.97;60.95;47644.00;5017269;28;20448;-85
2023/01/07 02:02:53;;;;;;;15.67;8.33;;;;;;;-141.97;60.74;47630.56;5013631;28;20914;-85
2023/01/07 02:05:20;;;;;;;22.30;10.50;;;;;;;-141.97;60.41;47780.47;5013549;28;20198;-85
2023/01/07 02:07:45;;;;;;;31.00;16.57;;;;;;;-141.97;60.38;47715.13;5029494;28;20464;-85
2023/01/07 02:10:30;;;;;;;34.60;18.03;;;;;;;-141.97;60.67;47649.78;5011917;28;20413;-85
2023/01/07 02:13:28;;;;;;;29.23;15.00;;;;;;;-141.97;61.08;47745.88;5011617;28;20169;-85
2023/01/07 02:16:17;;;;;;;16.37;8.97;;;;;;;-141.97;61.08;47711.28;5011766;28;20472;-85
2023/01/07 02:19:18;;;;;;;18.87;10.17;;;;;;;-141.97;61.13;47709.38;5011508;28;20461;-85
2023/01/07 02:21:43;;;;;;;18.77;10.07;;;;;;;-141.97;60.61;47713.22;5011815;28;20418;-85
2023/01/07 02:24:30;;;;;;;20.07;9.93;;;;;;;-141.97;61.05;47730.50;5011686;28;20410;-85
2023/01/07 02:27:12;;;;;;;22.23;10.60;;;;;;;-141.97;60.94;47695.91;5013074;28;20170;-85
2023/01/07 02:29:49;;;;;;;18.93;10.07;;;;;;;-141.97;60.64;47684.38;5012911;28;20405;-85
2023/01/07 02:32:21;;;;;;;20.93;10.43;;;;;;;-141.97;61.35;47722.81;5012993;28;20789;-85
2023/01/07 02:35:23;;;;;;;25.90;11.83;;;;;;;-141.97;61.05;47701.69;5013925;28;20906;-85
2023/01/07 02:38:00;;;;;;;22.90;10.83;;;;;;;-141.97;60.77;47743.97;5013587;28;20401;-85
2023/01/07 02:40:50;;;;;;;26.37;11.97;;;;;;;-141.97;60.85;47724.75;5011921;28;20452;-85
2023/01/07 02:43:36;;;;;;;21.43;10.90;;;;;;;-141.97;61.01;47665.16;5013834;28;20417;-85
2023/01/07 02:46:22;;;;;;;18.00;9.20;;;;;;;-141.97;60.87;47705.53;5012743;28;20917;-85
2023/01/07 02:48:49;;;;;;;18.80;9.93;;;;;;;-141.97;60.64;47669.00;5011306;28;21134;-86
2023/01/07 02:51:15;;;;;;;14.87;8.60;;;;;;;-141.97;61.05;47732.44;5011751;28;20416;-85
2023/01/07 02:53:45;;;;;;;20.40;10.37;;;;;;;-141.97;60.90;47688.22;5012721;28;20453;-85
2023/01/07 02:56:30;;;;;;;17.73;10.50;;;;;;;-141.97;61.36;47722.81;5012743;28;20163;-85
2023/01/07 02:59:20;;;;;;;25.07;11.63;;;;;;;-141.97;61.57;47768.94;5011199;28;20469;-85
2023/01/07 03:02:03;;;;;;;24.97;11.50;;;;;;;-141.97;61.81;47722.81;5012389;28;20435;-85
2023/01/07 03:05:16;;;;;;;25.77;10.97;;;;;;;-141.97;61.74;47707.44;5011053;28;20940;-85
2023/01/07 03:07:57;;;;;;;21.53;10.37;;;;;;;-141.97;62.58;47699.75;4971061;28;20427;-85
2023/01/07 03:11:00;;;;;;;22.43;11.00;;;;;;;-141.97;62.46;47686.31;4954797;28;20501;-86
2023/01/07 03:13:36;;;;;;;18.50;9.90;;;;;;;-141.97;62.79;47728.59;4895167;29;20460;-85
2023/01/07 03:16:11;;;;;;;20.03;9.57;;;;;;;-141.97;62.52;47665.16;4897289;29;20450;-85
2023/01/07 03:18:46;;;;;;;18.10;9.80;;;;;;;-141.97;63.71;47786.25;4882823;29;20480;-85
2023/01/07 03:21:16;;;;;;;18.50;8.93;;;;;;;-141.97;62.81;47688.22;4902819;29;20473;-85
2023/01/07 03:23:50;;;;;;;21.47;10.83;;;;;;;-141.97;63.23;47697.84;4909789;29;20516;-85
2023/01/07 03:26:21;;;;;;;18.67;10.23;;;;;;;-141.97;63.15;47715.13;4887349;29;20424;-86
2023/01/07 03:28:50;;;;;;;16.73;9.00;;;;;;;-141.97;62.56;47695.91;4883206;29;20907;-85
2023/01/07 03:31:19;;;;;;;26.20;13.07;;;;;;;-141.97;62.39;47707.44;4898462;29;20486;-85
2023/01/07 03:33:52;;;;;;;38.50;18.93;;;;;;;-141.97;62.39;47768.94;4898821;29;20974;-85
2023/01/07 03:36:22;;;;;;;47.17;20.93;;;;;;;-141.97;62.92;47703.59;4908556;29;20951;-81
2023/01/07 03:38:49;;;;;;;124.27;46.00;;;;;;;-141.97;62.86;47590.19;4903828;29;20461;-84
2023/01/07 03:42:38;;;;;;;169.53;62.23;;;;;;;-141.97;63.28;47684.38;4883345;29;20415;-84
2023/01/07 03:44:00;;;;;;;64.43;29.27;;;;;;;-141.97;63.18;47734.34;4950326;29;20442;-84
2023/01/07 03:46:27;;;;;;;57.47;29.10;;;;;;;-141.97;63.16;47632.47;4955232;29;20946;-84
2023/01/07 03:48:52;;;;;;;45.17;23.77;;;;;;;-141.97;63.53;47684.38;4939296;29;20660;-85
2023/01/07 03:51:17;;;;;;;50.30;25.70;;;;;;;-141.97;63.38;47628.63;5003682;28;20511;-85
2023/01/07 03:53:43;;;;;;;66.13;34.50;;;;;;;-141.97;63.64;47720.91;5013945;28;20236;-84
2023/01/07 03:56:08;;;;;;;61.07;29.50;;;;;;;-141.97;63.53;47642.09;5015324;28;20165;-85
2023/01/07 03:58:34;;;;;;;48.53;25.90;;;;;;;-141.97;63.42;47601.72;5015522;28;20246;-85
2023/01/07 04:00:59;;;;;;;36.03;18.97;;;;;;;-141.97;63.64;47740.13;5014076;28;20262;-85
2023/01/07 04:03:24;;;;;;;39.13;21.03;;;;;;;-141.97;63.88;47638.25;5014962;28;20180;-85
2023/01/07 04:05:50;;;;;;;42.53;23.63;;;;;;;-141.97;63.88;47655.53;5013344;28;20179;-87
2023/01/07 04:08:15;;;;;;;49.80;24.00;;;;;;;-141.97;64.24;47763.19;5014662;28;20182;-87
2023/01/07 04:10:41;;;;;;;36.23;17.67;;;;;;;-141.97;64.03;47605.56;5013259;28;20608;-85
2023/01/07 04:13:06;;;;;;;32.03;16.60;;;;;;;-141.97;63.62;47711.28;5014642;28;20564;-85
2023/01/07 04:15:33;;;;;;;35.97;14.90;;;;;;;-141.97;63.15;47722.81;5015010;28;20415;-85
2023/01/07 04:17:58;;;;;;;36.87;17.47;;;;;;;-141.97;63.21;47580.59;5014806;28;20173;-86
2023/01/07 04:20:24;;;;;;;42.00;19.63;;;;;;;-141.97;63.57;47732.44;5014702;28;20414;-85
2023/01/07 04:22:49;;;;;;;40.17;19.37;;;;;;;-141.97;63.68;47607.50;5013282;28;20167;-85
2023/01/07 04:25:14;;;;;;;42.33;19.73;;;;;;;-141.97;63.80;47711.28;5014919;28;20177;-85
2023/01/07 04:27:40;;;;;;;40.43;20.53;;;;;;;-141.97;63.87;47707.44;5014127;28;20196;-85
2023/01/07 04:30:06;;;;;;;46.43;21.87;;;;;;;-141.97;64.39;47647.84;5014493;28;20170;-85
2023/01/07 04:32:32;;;;;;;52.03;23.03;;;;;;;-141.97;64.86;47615.19;5015292;28;20426;-86
2023/01/07 04:34:57;;;;;;;49.80;22.70;;;;;;;-141.97;64.40;47726.66;5015027;28;20170;-86
2023/01/07 04:37:22;;;;;;;45.13;19.57;;;;;;;-141.97;64.72;47761.25;5013304;28;20597;-85
2023/01/07 04:39:48;;;;;;;44.10;21.93;;;;;;;-141.97;65.16;47780.47;5012886;28;20740;-85
2023/01/07 04:42:13;;;;;;;39.57;19.47;;;;;;;-141.97;64.91;47709.38;5014148;28;20179;-87
2023/01/07 04:44:39;;;;;;;36.53;17.67;;;;;;;-141.97;65.63;47699.75;5014158;28;20167;-85
2023/01/07 04:47:04;;;;;;;37.80;18.97;;;;;;;-141.97;65.95;47768.94;5013329;28;20241;-85
2023/01/07 04:49:29;;;;;;;41.43;19.40;;;;;;;-141.97;65.98;47672.84;5012788;28;20169;-86
2023/01/07 04:51:55;;;;;;;36.47;18.17;;;;;;;-141.97;66.29;47630.56;5013249;28;20229;-85
2023/01/07 04:54:20;;;;;;;33.63;15.90;;;;;;;-141.97;66.25;47624.78;5015882;28;20232;-85
2023/01/07 04:56:46;;;;;;;44.23;21.23;;;;;;;-141.97;66.23;47718.97;5017497;28;20178;-85
2023/01/07 04:59:11;;;;;;;26.40;14.23;;;;;;;-141.97;66.57;47709.38;5022868;28;20186;-85
2023/01/07 05:01:36;;;;;;;25.57;13.17;;;;;;;-141.97;66.25;47694.00;5022972;28;20166;-85
2023/01/07 05:04:02;;;;;;;22.90;12.10;;;;;;;-141.97;66.76;47782.41;5020509;28;20212;-85
2023/01/07 05:06:27;;;;;;;27.00;14.00;;;;;;;-141.97;67.15;47740.13;5015751;28;20568;-85
2023/01/07 05:08:53;;;;;;;26.87;14.70;;;;;;;-141.97;68.26;47670.91;5016080;28;20163;-85
2023/01/07 05:11:21;;;;;;;35.33;17.07;;;;;;;-141.97;68.54;47659.38;5015346;28;20661;-85
2023/01/07 05:13:48;;;;;;;34.40;16.07;;;;;;;-141.97;67.95;47697.84;5016635;28;20258;-84
2023/01/07 05:16:14;;;;;;;55.30;27.47;;;;;;;-141.97;68.50;47726.66;5015372;28;20402;-85
2023/01/07 05:18:39;;;;;;;77.13;35.87;;;;;;;-141.97;68.44;47701.69;5015486;28;20838;-85
2023/01/07 05:21:05;;;;;;;117.13;50.00;;;;;;;-141.97;68.16;47653.63;5016911;28;20561;-86
2023/01/07 05:23:30;;;;;;;103.10;43.83;;;;;;;-141.97;68.42;47720.91;5019618;28;20170;-85
2023/01/07 05:25:56;;;;;;;81.97;34.00;;;;;;;-141.97;68.19;47665.16;5020986;28;20179;-85
2023/01/07 05:28:21;;;;;;;78.80;31.73;;;;;;;-141.97;68.25;47619.03;5019374;28;20225;-85
2023/01/07 05:30:46;;;;;;;103.90;41.63;;;;;;;-141.97;68.54;47751.66;5012241;28;20628;-85
2023/01/07 05:33:12;;;;;;;89.27;37.33;;;;;;;-141.97;68.17;47611.34;5013618;28;20249;-85
2023/01/07 05:35:38;;;;;;;55.70;26.80;;;;;;;-141.97;68.68;47699.75;5013811;28;20166;-85
2023/01/07 05:38:03;;;;;;;84.63;38.13;;;;;;;-141.97;68.47;47734.34;5012342;28;20186;-85
2023/01/07 05:40:29;;;;;;;56.40;26.37;;;;;;;-141.97;67.99;47588.28;5011507;28;20637;-86
2023/01/07 05:42:54;;;;;;;41.90;18.50;;;;;;;-141.97;68.30;47617.09;5013199;28;20224;-84
2023/01/07 05:45:22;;;;;;;49.27;20.73;;;;;;;-141.97;68.53;47692.06;5011901;28;20177;-84
2023/01/07 05:47:48;;;;;;;89.33;37.83;;;;;;;-141.97;68.41;47703.59;5011664;28;20693;-85
2023/01/07 05:50:13;;;;;;;106.00;41.97;;;;;;;-141.97;68.36;47692.06;5013011;28;20469;-86
2023/01/07 05:52:39;;;;;;;89.73;38.67;;;;;;;-141.97;68.05;47628.63;5012951;28;20239;-85
2023/01/07 05:55:06;;;;;;;89.33;37.37;;;;;;;-141.97;68.42;47699.75;5013851;28;20550;-85
2023/01/07 05:57:32;;;;;;;106.80;44.37;;;;;;;-141.97;68.31;47718.97;5015141;28;20182;-84
2023/01/07 05:59:57;;;;;;;90.60;39.00;;;;;;;-141.97;68.16;47720.91;5015855;28;20561;-85
2023/01/07 06:02:22;;;;;;;77.33;31.33;;;;;;;-141.97;68.01;47736.28;5013242;28;20166;-85
2023/01/07 06:04:48;;;;;;;60.83;27.33;;;;;;;-141.97;68.05;47653.63;5023937;28;20172;-83
2023/01/07 06:07:13;;;;;;;38.83;17.07;;;;;;;-141.97;68.31;47695.91;5013064;28;20216;-85
2023/01/07 06:09:39;;;;;;;38.50;17.90;;;;;;;-141.97;68.27;47780.47;5013488;28;20182;-85
2023/01/07 06:12:04;;;;;;;49.23;20.60;;;;;;;-141.97;67.96;47695.91;5011468;28;20209;-85
2023/01/07 06:14:30;;;;;;;46.77;25.37;;;;;;;-141.97;68.18;47740.13;5012792;28;20163;-85
2023/01/07 06:16:55;;;;;;;48.57;22.83;;;;;;;-141.97;68.20;47795.88;5011680;28;20166;-85
2023/01/07 06:19:21;;;;;;;53.97;23.83;;;;;;;-141.97;68.65;47726.66;5011109;28;20197;-85
2023/01/07 06:21:48;;;;;;;57.03;25.97;;;;;;;-141.97;69.18;47722.81;5011366;28;20328;-85
2023/01/07 06:24:13;;;;;;;59.03;25.43;;;;;;;-141.97;69.05;47703.59;5012622;28;20412;-85
2023/01/07 06:26:39;;;;;;;61.30;26.33;;;;;;;-141.97;68.75;47759.34;5010859;28;20409;-85
2023/01/07 06:29:04;;;;;;;81.73;38.53;;;;;;;-141.97;68.45;47674.78;5010907;28;20218;-86
2023/01/07 06:31:30;;;;;;;160.17;63.53;;;;;;;-141.97;68.01;47680.53;5010581;28;20198;-85
2023/01/07 06:33:55;;;;;;;247.03;97.80;;;;;;;-141.97;67.98;47707.44;5011824;28;20257;-85
2023/01/07 06:36:20;;;;;;;303.80;122.60;;;;;;;-141.97;67.49;47619.03;5010552;28;20642;-85
2023/01/07 06:38:46;;;;;;;136.83;61.87;;;;;;;-141.97;66.14;47686.31;5011639;28;20260;-85
2023/01/07 06:41:11;;;;;;;162.83;80.97;;;;;;;-141.97;64.72;47715.13;5011540;28;20249;-85
2023/01/07 06:43:37;;;;;;;134.37;61.83;;;;;;;-141.97;63.17;47607.50;5012467;28;20167;-85
2023/01/07 06:46:02;;;;;;;200.47;92.10;;;;;;;-141.97;62.17;47603.66;5011659;28;20167;-85
2023/01/07 06:48:28;;;;;;;186.63;88.30;;;;;;;-141.97;62.29;47776.63;5011826;28;20599;-86
2023/01/07 06:50:53;;;;;;;177.90;83.43;;;;;;;-141.97;62.51;47653.63;5012105;28;20174;-86
2023/01/07 06:53:18;;;;;;;119.03;52.73;;;;;;;-141.97;62.31;47745.88;5010284;28;20710;-85
2023/01/07 06:55:48;;;;;;;62.80;27.60;;;;;;;-141.97;61.78;47720.91;5010236;28;20188;-86
2023/01/07 06:58:14;;;;;;;43.50;19.20;;;;;;;-141.97;61.66;47684.38;5011634;28;20195;-85
2023/01/07 07:00:40;;;;;;;45.47;20.83;;;;;;;-141.97;61.62;47726.66;5010531;28;21021;-86
2023/01/07 07:03:05;;;;;;;32.30;15.20;;;;;;;-141.97;61.01;47809.31;5011797;28;20225;-85
2023/01/07 07:05:30;;;;;;;29.67;12.03;;;;;;;-141.97;60.37;47665.16;5011771;28;20162;-85
2023/01/07 07:07:56;;;;;;;29.50;13.40;;;;;;;-141.97;60.04;47626.72;5010704;28;20270;-85
2023/01/07 07:10:21;;;;;;;33.80;15.43;;;;;;;-141.97;56.16;47780.47;5010804;28;20646;-85
2023/01/07 07:12:47;;;;;;;30.87;14.07;;;;;;;-141.97;47.16;47718.97;5011762;28;20175;-85
2023/01/07 07:15:12;;;;;;;37.03;17.30;;;;;;;-141.97;42.93;47690.16;5012182;28;20685;-85
2023/01/07 07:17:37;;;;;;;27.97;14.70;;;;;;;-141.97;40.98;47793.94;5010901;28;20181;-85
2023/01/07 07:20:03;;;;;;;34.20;17.03;;;;;;;-141.97;39.54;47619.03;5010236;28;20206;-85
2023/01/07 07:22:29;;;;;;;53.87;28.83;;;;;;;-141.97;38.51;47772.78;5012365;28;20585;-85
2023/01/07 07:24:54;;;;;;;121.20;35.47;;;;;;;-141.97;37.34;47669.00;5013722;28;20612;-86
2023/01/07 07:27:20;;;;;;;62.27;29.80;;;;;;;-141.97;37.63;47795.88;5012539;28;20313;-85
2023/01/07 07:29:45;;;;;;;45.57;23.20;;;;;;;-141.97;38.09;47628.63;5012477;28;20273;-85
2023/01/07 07:32:10;;;;;;;50.60;27.03;;;;;;;-141.97;40.07;47638.25;5018199;28;20171;-84
2023/01/07 07:34:36;;;;;;;35.33;19.87;;;;;;;-141.97;42.54;47792.03;5019337;28;20535;-85
2023/01/07 07:37:01;;;;;;;95.03;44.93;;;;;;;-141.97;45.16;47624.78;5014900;28;20174;-85
2023/01/07 07:39:27;;;;;;;77.27;37.70;;;;;;;-141.97;46.27;47768.94;5012248;28;20298;-85
2023/01/07 07:41:52;;;;;;;58.03;30.20;;;;;;;-141.97;47.57;47772.78;5012300;28;20714;-85
2023/01/07 07:44:18;;;;;;;109.57;56.40;;;;;;;-141.97;48.50;47597.88;5015446;28;20167;-85
2023/01/07 07:46:43;;;;;;;63.97;37.47;;;;;;;-141.97;50.09;47580.59;5012618;28;20167;-84
2023/01/07 07:49:11;;;;;;;45.13;23.50;;;;;;;-141.97;50.00;47697.84;5012362;28;20167;-86
2023/01/07 07:51:37;;;;;;;40.97;20.20;;;;;;;-141.97;50.86;47630.56;5014442;28;20171;-85
2023/01/07 07:54:03;;;;;;;48.60;23.87;;;;;;;-141.97;51.22;47678.63;5010457;28;20311;-85
2023/01/07 07:56:28;;;;;;;78.17;38.60;;;;;;;-141.97;51.60;47607.50;5011679;28;20167;-86
2023/01/07 07:58:54;;;;;;;60.00;30.03;;;;;;;-141.97;51.68;47636.31;5012987;28;20594;-85
2023/01/07 08:01:19;;;;;;;37.73;16.83;;;;;;;-141.97;51.68;47661.31;5013887;28;20166;-85
2023/01/07 08:03:45;;;;;;;19.97;9.97;;;;;;;-141.97;52.17;47747.81;5016876;28;20178;-85
2023/01/07 08:06:11;;;;;;;23.23;11.70;;;;;;;-141.97;52.66;47815.09;5015758;28;20171;-85
2023/01/07 08:08:37;;;;;;;16.67;8.70;;;;;;;-141.97;52.29;47663.22;5016099;28;20177;-85
2023/01/07 08:11:03;;;;;;;17.20;9.07;;;;;;;-141.97;51.67;47711.28;5015655;28;20171;-84
2023/01/07 08:13:30;;;;;;;36.80;18.73;;;;;;;-141.97;51.80;47655.53;5015009;28;20254;-86
2023/01/07 08:15:55;;;;;;;21.13;11.17;;;;;;;-141.97;51.14;47811.25;5018042;28;20174;-85
2023/01/07 08:18:22;;;;;;;21.50;10.60;;;;;;;-141.97;51.15;47755.50;5015696;28;20198;-86
2023/01/07 08:20:48;;;;;;;25.73;14.60;;;;;;;-141.97;51.08;47622.88;5015935;28;20174;-84
2023/01/07 08:23:13;;;;;;;34.97;17.63;;;;;;;-141.97;50.41;47670.91;5015020;28;20174;-84
2023/01/07 08:25:39;;;;;;;49.87;26.00;;;;;;;-141.97;50.81;47728.59;5015548;28;20228;-87
2023/01/07 08:28:04;;;;;;;50.10;26.33;;;;;;;-141.97;50.06;47678.63;5016934;28;20535;-86
2023/01/07 08:30:30;;;;;;;52.90;29.40;;;;;;;-141.97;49.42;47565.22;5025215;28;20197;-85
2023/01/07 08:32:56;;;;;;;39.03;21.87;;;;;;;-141.97;48.44;47632.47;5018906;28;20246;-84
2023/01/07 08:35:22;;;;;;;33.97;16.37;;;;;;;-141.97;49.66;47672.84;5015868;28;20646;-86
2023/01/07 08:37:48;;;;;;;25.53;13.50;;;;;;;-141.97;49.66;47703.59;5016894;28;20190;-86
2023/01/07 08:40:13;;;;;;;23.43;11.53;;;;;;;-141.97;50.66;47659.38;5014900;28;20209;-88
2023/01/07 08:42:39;;;;;;;24.57;11.67;;;;;;;-141.97;51.75;47759.34;5014346;28;20170;-87
2023/01/07 08:45:07;;;;;;;21.60;11.20;;;;;;;-141.97;52.04;47574.81;5012764;28;20190;-86
2023/01/07 08:47:33;;;;;;;40.37;21.37;;;;;;;-141.97;50.61;47705.53;5009642;28;20187;-85
2023/01/07 08:49:58;;;;;;;33.10;16.33;;;;;;;-141.97;49.25;47530.59;5008642;28;20220;-86
2023/01/07 08:52:24;;;;;;;28.37;15.10;;;;;;;-141.97;48.77;47680.53;5013744;28;20246;-84
2023/01/07 08:54:49;;;;;;;54.87;28.37;;;;;;;-141.97;49.25;47624.78;5015666;28;20189;-86
2023/01/07 08:57:16;;;;;;;61.97;29.27;;;;;;;-141.97;48.74;47601.72;5015485;28;20185;-85
2023/01/07 08:59:42;;;;;;;41.80;21.47;;;;;;;-141.97;48.50;47653.63;5014748;28;20728;-85
2023/01/07 09:02:18;;;;;;;33.03;18.50;;;;;;;-141.97;47.92;47811.25;5015844;28;20154;-85
2023/01/07 09:04:44;;;;;;;41.57;22.20;;;;;;;-141.97;46.79;47711.28;5009038;28;20213;-85
2023/01/07 09:07:10;;;;;;;25.97;13.80;;;;;;;-141.97;46.53;47601.72;4996325;28;20179;-86
2023/01/07 09:09:36;;;;;;;20.10;11.60;;;;;;;-141.97;47.33;47726.66;4996456;28;20159;-86
2023/01/07 09:12:03;;;;;;;22.13;12.47;;;;;;;-141.97;46.20;47682.47;4996242;28;20171;-85
2023/01/07 09:14:28;;;;;;;33.07;13.70;;;;;;;-141.97;46.19;47815.09;4995182;28;20254;-85
2023/01/07 09:16:54;;;;;;;25.07;12.57;;;;;;;-141.97;45.98;47657.47;4996304;28;20682;-86
2023/01/07 09:19:21;;;;;;;19.80;9.73;;;;;;;-141.97;46.19;47780.47;4993610;28;20691;-86
2023/01/07 09:21:46;;;;;;;19.43;10.33;;;;;;;-141.97;45.99;47688.22;4995566;28;20667;-85
2023/01/07 09:24:12;;;;;;;16.77;9.30;;;;;;;-141.97;46.09;47674.78;4994116;28;20175;-86
2023/01/07 09:26:37;;;;;;;16.43;9.37;;;;;;;-141.97;45.52;47676.69;4993718;28;20167;-85
2023/01/07 09:29:03;;;;;;;28.10;16.50;;;;;;;-141.97;44.27;47718.97;4994364;28;20163;-85
2023/01/07 09:31:28;;;;;;;19.77;11.80;;;;;;;-141.97;44.23;47701.69;4996170;28;20178;-84
2023/01/07 09:33:53;;;;;;;32.70;17.40;;;;;;;-141.97;44.30;47644.00;4995293;28;20174;-87
2023/01/07 09:36:19;;;;;;;51.40;23.43;;;;;;;-141.97;43.06;47805.47;4994535;28;20712;-87
2023/01/07 09:38:44;;;;;;;28.20;13.33;;;;;;;-141.97;43.35;47782.41;4993782;28;20230;-86
2023/01/07 09:41:30;;;;;;;17.87;9.77;;;;;;;-141.97;43.24;47765.09;4994673;28;20228;-86
2023/01/07 09:44:27;;;;;;;21.57;12.27;;;;;;;-141.97;43.53;47757.41;4994893;28;20167;-88
2023/01/07 09:46:54;;;;;;;17.50;9.77;;;;;;;-141.97;43.77;47699.75;4956172;29;20669;-84
2023/01/07 09:49:31;;;;;;;32.00;16.57;;;;;;;-141.97;43.46;47711.28;4954774;29;20189;-84
2023/01/07 09:52:04;;;;;;;31.57;19.37;;;;;;;-141.97;42.85;47734.34;4959219;28;20203;-85
2023/01/07 09:54:35;;;;;;;13.33;7.47;;;;;;;-141.97;42.71;47776.63;4961282;29;20740;-84
2023/01/07 09:57:02;;;;;;;14.57;8.47;;;;;;;-141.97;42.25;47672.84;4955889;29;20192;-84
2023/01/07 09:59:27;;;;;;;14.40;7.83;;;;;;;-141.97;42.61;47799.72;4952525;29;20197;-85
2023/01/07 10:01:58;;;;;;;15.57;7.33;;;;;;;-141.97;42.84;47715.13;4952865;29;20179;-85
2023/01/07 10:04:30;;;;;;;14.90;8.30;;;;;;;-141.97;42.48;47667.06;4936809;29;20197;-85
2023/01/07 10:07:39;;;;;;;14.23;8.00;;;;;;;-141.97;42.05;47669.00;4953750;29;20184;-85
2023/01/07 10:10:25;;;;;;;17.53;8.93;;;;;;;-141.97;41.53;47672.84;4896680;29;20734;-85
2023/01/07 10:13:10;;;;;;;20.40;11.00;;;;;;;-141.97;41.67;47697.84;4895886;29;20194;-87
2023/01/07 10:16:06;;;;;;;19.43;11.10;;;;;;;-141.97;42.22;47634.41;4899688;29;20182;-86
2023/01/07 10:18:53;;;;;;;15.27;8.70;;;;;;;-141.97;42.44;47632.47;4896106;29;20195;-88
2023/01/07 10:21:51;;;;;;;12.60;6.67;;;;;;;-141.97;43.13;47634.41;4895713;29;20237;-86
2023/01/07 10:24:26;;;;;;;12.20;7.83;;;;;;;-141.97;43.37;47817.00;4893806;29;20560;-86
2023/01/07 10:26:56;;;;;;;12.93;7.00;;;;;;;-141.97;43.16;47680.53;4898168;29;20291;-86
2023/01/07 10:29:35;;;;;;;13.43;7.40;;;;;;;-141.97;42.53;47676.69;4898527;29;20178;-88
2023/01/07 10:32:16;;;;;;;12.87;7.33;;;;;;;-141.97;42.61;47667.06;4917194;29;20205;-86
2023/01/07 10:34:47;;;;;;;16.73;8.37;;;;;;;-141.97;42.40;47711.28;4918689;29;20176;-86
2023/01/07 10:37:28;;;;;;;14.17;7.73;;;;;;;-141.97;42.62;47586.34;4899833;29;20181;-86
2023/01/07 10:40:05;;;;;;;25.00;10.17;;;;;;;-141.97;42.37;47634.41;4913127;29;20281;-85
2023/01/07 10:43:08;;;;;;;15.80;7.50;;;;;;;-141.97;41.57;47667.06;4912523;29;20241;-87
2023/01/07 10:45:42;;;;;;;11.20;6.37;;;;;;;-141.97;43.09;47678.63;4948756;28;20195;-85
2023/01/07 10:48:14;;;;;;;32.23;16.77;;;;;;;-141.97;42.34;47672.84;4990662;28;20175;-85
2023/01/07 10:51:01;;;;;;;11.00;6.43;;;;;;;-141.97;44.09;47711.28;4992475;28;20175;-86
2023/01/07 10:53:48;;;;;;;8.13;5.07;;;;;;;-141.97;44.33;47684.38;4990872;28;20230;-85
2023/01/07 10:56:27;;;;;;;11.20;5.80;;;;;;;-141.97;44.77;47799.72;4992056;28;20159;-86
2023/01/07 10:58:52;;;;;;;44.20;17.00;;;;;;;-141.97;44.25;47634.41;4999559;28;20256;-87
2023/01/07 11:01:24;;;;;;;27.67;10.53;;;;;;;-141.97;43.11;47676.69;5007713;28;20170;-85
2023/01/07 11:03:52;;;;;;;14.43;7.57;;;;;;;-141.97;43.44;47613.25;5011896;28;20186;-84
2023/01/07 11:06:26;;;;;;;120.53;22.63;;;;;;;-141.97;43.67;47584.44;5010582;28;20248;-86
2023/01/07 11:08:52;;;;;;;80.80;34.00;;;;;;;-141.97;43.34;47617.09;5012057;28;20547;-85
2023/01/07 11:11:22;;;;;;;34.13;18.23;;;;;;;-141.97;43.72;47607.50;5013420;28;20177;-85
2023/01/07 11:13:57;;;;;;;24.10;12.23;;;;;;;-141.97;42.38;47811.25;5011823;28;20174;-85
2023/01/07 11:16:28;;;;;;;17.87;9.67;;;;;;;-141.97;43.01;47682.47;5011841;28;20170;-85